sensor_id;sensor_type;location;lat;lon;timestamp;pressure;altitude;pressure_sealevel;temperature;humidity
2397;BME280;1209;48.410;9.054;2023-04-22T00:01:58;95617.19;;;11.59;100.00
2397;BME280;1209;48.410;9.054;2023-04-22T00:04:23;95608.97;;;11.69;100.00
2397;BME280;1209;48.410;9.054;2023-04-22T00:06:49;95609.56;;;11.71;100.00
2397;BME280;1209;48.410;9.054;2023-04-22T00:09:14;95603.75;;;11.76;100.00
2397;BME280;1209;48.410;9.054;2023-04-22T00:11:39;95608.72;;;11.57;100.00
2397;BME280;1209;48.410;9.054;2023-04-22T00:14:05;95608.97;;;11.76;100.00
2397;BME280;1209;48.410;9.054;2023-04-22T00:16:30;95602.50;;;11.58;100.00
2397;BME280;1209;48.410;9.054;2023-04-22T00:18:56;95599.50;;;11.68;100.00
2397;BME280;1209;48.410;9.054;2023-04-22T00:21:21;95602.94;;;11.75;100.00
2397;BME280;1209;48.410;9.054;2023-04-22T00:23:47;95601.28;;;11.54;100.00
2397;BME280;1209;48.410;9.054;2023-04-22T00:26:12;95594.66;;;11.58;100.00
2397;BME280;1209;48.410;9.054;2023-04-22T00:28:37;95594.66;;;11.58;100.00
2397;BME280;1209;48.410;9.054;2023-04-22T00:31:03;95597.44;;;11.50;100.00
2397;BME280;1209;48.410;9.054;2023-04-22T00:33:29;95594.03;;;11.50;100.00
2397;BME280;1209;48.410;9.054;2023-04-22T00:35:55;95595.25;;;11.60;100.00
2397;BME280;1209;48.410;9.054;2023-04-22T00:38:20;95591.00;;;11.53;100.00
2397;BME280;1209;48.410;9.054;2023-04-22T00:40:46;95591.44;;;11.63;100.00
2397;BME280;1209;48.410;9.054;2023-04-22T00:43:11;95597.25;;;11.58;100.00
2397;BME280;1209;48.410;9.054;2023-04-22T00:45:38;95591.19;;;11.45;100.00
2397;BME280;1209;48.410;9.054;2023-04-22T00:48:03;95595.22;;;11.41;100.00
2397;BME280;1209;48.410;9.054;2023-04-22T00:50:29;95596.34;;;11.25;100.00
2397;BME280;1209;48.410;9.054;2023-04-22T00:52:54;95602.19;;;11.33;100.00
2397;BME280;1209;48.410;9.054;2023-04-22T00:55:20;95602.63;;;11.37;100.00
2397;BME280;1209;48.410;9.054;2023-04-22T00:57:45;95599.63;;;11.40;100.00
2397;BME280;1209;48.410;9.054;2023-04-22T01:00:13;95594.28;;;11.14;100.00
2397;BME280;1209;48.410;9.054;2023-04-22T01:02:39;95616.00;;;11.14;100.00
2397;BME280;1209;48.410;9.054;2023-04-22T01:05:05;95601.38;;;11.26;100.00
2397;BME280;1209;48.410;9.054;2023-04-22T01:07:30;95609.00;;;11.28;100.00
2397;BME280;1209;48.410;9.054;2023-04-22T01:09:56;95610.44;;;11.30;100.00
2397;BME280;1209;48.410;9.054;2023-04-22T01:12:21;95600.53;;;11.19;100.00
2397;BME280;1209;48.410;9.054;2023-04-22T01:14:47;95598.16;;;11.31;100.00
2397;BME280;1209;48.410;9.054;2023-04-22T01:17:13;95600.16;;;11.29;100.00
2397;BME280;1209;48.410;9.054;2023-04-22T01:19:40;95596.13;;;11.20;100.00
2397;BME280;1209;48.410;9.054;2023-04-22T01:22:07;95598.53;;;11.21;100.00
2397;BME280;1209;48.410;9.054;2023-04-22T01:24:33;95606.38;;;11.21;100.00
2397;BME280;1209;48.410;9.054;2023-04-22T01:26:58;95603.66;;;10.95;100.00
2397;BME280;1209;48.410;9.054;2023-04-22T01:29:24;95598.47;;;11.08;100.00
2397;BME280;1209;48.410;9.054;2023-04-22T01:31:49;95606.03;;;10.90;100.00
2397;BME280;1209;48.410;9.054;2023-04-22T01:34:15;95604.44;;;10.95;100.00
2397;BME280;1209;48.410;9.054;2023-04-22T01:36:40;95597.00;;;10.92;100.00
2397;BME280;1209;48.410;9.054;2023-04-22T01:39:05;95588.16;;;10.93;100.00
2397;BME280;1209;48.410;9.054;2023-04-22T01:41:31;95588.44;;;11.12;100.00
2397;BME280;1209;48.410;9.054;2023-04-22T01:43:57;95598.91;;;11.18;100.00
2397;BME280;1209;48.410;9.054;2023-04-22T01:46:24;95596.38;;;10.90;100.00
2397;BME280;1209;48.410;9.054;2023-04-22T01:48:50;95605.28;;;11.02;100.00
2397;BME280;1209;48.410;9.054;2023-04-22T01:51:19;95596.38;;;10.90;100.00
2397;BME280;1209;48.410;9.054;2023-04-22T01:53:50;95602.94;;;10.80;100.00
2397;BME280;1209;48.410;9.054;2023-04-22T01:56:16;95602.13;;;10.79;100.00
2397;BME280;1209;48.410;9.054;2023-04-22T01:58:41;95603.66;;;10.95;100.00
2397;BME280;1209;48.410;9.054;2023-04-22T02:01:11;95609.09;;;11.00;100.00
2397;BME280;1209;48.410;9.054;2023-04-22T02:03:37;95612.47;;;10.59;100.00
2397;BME280;1209;48.410;9.054;2023-04-22T02:06:02;95610.69;;;10.66;100.00
2397;BME280;1209;48.410;9.054;2023-04-22T02:08:28;95606.13;;;10.75;100.00
2397;BME280;1209;48.410;9.054;2023-04-22T02:10:53;95605.56;;;10.86;100.00
2397;BME280;1209;48.410;9.054;2023-04-22T02:13:19;95604.25;;;10.62;100.00
2397;BME280;1209;48.410;9.054;2023-04-22T02:15:44;95605.13;;;10.76;100.00
2397;BME280;1209;48.410;9.054;2023-04-22T02:18:09;95606.75;;;10.49;100.00
2397;BME280;1209;48.410;9.054;2023-04-22T02:20:35;95606.63;;;10.57;100.00
2397;BME280;1209;48.410;9.054;2023-04-22T02:23:01;95609.28;;;10.64;100.00
2397;BME280;1209;48.410;9.054;2023-04-22T02:25:27;95611.34;;;10.75;100.00
2397;BME280;1209;48.410;9.054;2023-04-22T02:27:53;95603.41;;;10.55;100.00
2397;BME280;1209;48.410;9.054;2023-04-22T02:30:19;95608.41;;;10.57;100.00
2397;BME280;1209;48.410;9.054;2023-04-22T02:32:44;95615.91;;;10.66;100.00
2397;BME280;1209;48.410;9.054;2023-04-22T02:35:10;95622.47;;;10.56;100.00
2397;BME280;1209;48.410;9.054;2023-04-22T02:37:36;95624.91;;;10.57;100.00
2397;BME280;1209;48.410;9.054;2023-04-22T02:40:01;95613.38;;;10.45;100.00
2397;BME280;1209;48.410;9.054;2023-04-22T02:42:27;95625.22;;;10.48;100.00
2397;BME280;1209;48.410;9.054;2023-04-22T02:44:53;95623.28;;;10.35;100.00
2397;BME280;1209;48.410;9.054;2023-04-22T02:47:18;95622.38;;;10.43;100.00
2397;BME280;1209;48.410;9.054;2023-04-22T02:49:43;95618.59;;;10.45;100.00
2397;BME280;1209;48.410;9.054;2023-04-22T02:52:08;95614.56;;;10.43;100.00
2397;BME280;1209;48.410;9.054;2023-04-22T02:54:34;95624.91;;;10.36;100.00
2397;BME280;1209;48.410;9.054;2023-04-22T02:56:59;95619.84;;;10.28;100.00
2397;BME280;1209;48.410;9.054;2023-04-22T02:59:25;95619.50;;;10.37;100.00
2397;BME280;1209;48.410;9.054;2023-04-22T03:01:50;95621.91;;;10.39;100.00
2397;BME280;1209;48.410;9.054;2023-04-22T03:04:16;95612.94;;;10.42;100.00
2397;BME280;1209;48.410;9.054;2023-04-22T03:06:41;95616.97;;;10.23;100.00
2397;BME280;1209;48.410;9.054;2023-04-22T03:09:06;95619.50;;;10.16;100.00
2397;BME280;1209;48.410;9.054;2023-04-22T03:11:32;95610.34;;;10.20;100.00
2397;BME280;1209;48.410;9.054;2023-04-22T03:13:57;95614.38;;;10.23;100.00
2397;BME280;1209;48.410;9.054;2023-04-22T03:16:23;95610.16;;;10.00;100.00
2397;BME280;1209;48.410;9.054;2023-04-22T03:18:48;95608.06;;;10.17;100.00
2397;BME280;1209;48.410;9.054;2023-04-22T03:21:14;95605.56;;;10.24;100.00
2397;BME280;1209;48.410;9.054;2023-04-22T03:23:39;95609.50;;;10.20;100.00
2397;BME280;1209;48.410;9.054;2023-04-22T03:26:05;95609.41;;;10.28;100.00
2397;BME280;1209;48.410;9.054;2023-04-22T03:28:30;95616.84;;;10.31;100.00
2397;BME280;1209;48.410;9.054;2023-04-22T03:30:56;95628.03;;;10.25;100.00
2397;BME280;1209;48.410;9.054;2023-04-22T03:33:21;95624.44;;;10.26;100.00
2397;BME280;1209;48.410;9.054;2023-04-22T03:35:47;95627.91;;;10.12;100.00
2397;BME280;1209;48.410;9.054;2023-04-22T03:38:13;95626.59;;;10.01;100.00
2397;BME280;1209;48.410;9.054;2023-04-22T03:40:40;95632.09;;;9.91;100.00
2397;BME280;1209;48.410;9.054;2023-04-22T03:43:05;95652.34;;;9.89;100.00
2397;BME280;1209;48.410;9.054;2023-04-22T03:45:31;95645.56;;;9.73;100.00
2397;BME280;1209;48.410;9.054;2023-04-22T03:47:56;95649.16;;;9.72;100.00
2397;BME280;1209;48.410;9.054;2023-04-22T03:50:21;95644.09;;;9.86;100.00
2397;BME280;1209;48.410;9.054;2023-04-22T03:52:47;95647.88;;;9.83;100.00
2397;BME280;1209;48.410;9.054;2023-04-22T03:55:12;95643.34;;;9.92;100.00
2397;BME280;1209;48.410;9.054;2023-04-22T03:57:37;95647.94;;;9.90;100.00
2397;BME280;1209;48.410;9.054;2023-04-22T04:00:03;95650.53;;;9.90;100.00
2397;BME280;1209;48.410;9.054;2023-04-22T04:02:29;95640.91;;;9.90;100.00
2397;BME280;1209;48.410;9.054;2023-04-22T04:04:54;95641.22;;;9.59;100.00
2397;BME280;1209;48.410;9.054;2023-04-22T04:07:20;95637.88;;;9.65;100.00
2397;BME280;1209;48.410;9.054;2023-04-22T04:09:45;95636.69;;;9.89;100.00
2397;BME280;1209;48.410;9.054;2023-04-22T04:12:10;95641.81;;;9.97;100.00
2397;BME280;1209;48.410;9.054;2023-04-22T04:14:36;95638.28;;;10.05;100.00
2397;BME280;1209;48.410;9.054;2023-04-22T04:17:01;95641.69;;;10.05;100.00
2397;BME280;1209;48.410;9.054;2023-04-22T04:19:27;95647.03;;;9.97;100.00
2397;BME280;1209;48.410;9.054;2023-04-22T04:21:53;95646.69;;;9.86;100.00
2397;BME280;1209;48.410;9.054;2023-04-22T04:24:18;95649.22;;;9.94;100.00
2397;BME280;1209;48.410;9.054;2023-04-22T04:26:43;95652.31;;;10.04;100.00
2397;BME280;1209;48.410;9.054;2023-04-22T04:29:09;95653.75;;;10.06;100.00
2397;BME280;1209;48.410;9.054;2023-04-22T04:31:34;95646.34;;;10.10;100.00
2397;BME280;1209;48.410;9.054;2023-04-22T04:33:59;95642.69;;;10.04;100.00
2397;BME280;1209;48.410;9.054;2023-04-22T04:36:25;95638.31;;;9.90;100.00
2397;BME280;1209;48.410;9.054;2023-04-22T04:38:51;95637.06;;;9.65;100.00
2397;BME280;1209;48.410;9.054;2023-04-22T04:41:17;95641.00;;;9.97;100.00
2397;BME280;1209;48.410;9.054;2023-04-22T04:43:45;95643.44;;;9.98;100.00
2397;BME280;1209;48.410;9.054;2023-04-22T04:46:12;95641.72;;;9.91;100.00
2397;BME280;1209;48.410;9.054;2023-04-22T04:48:39;95649.38;;;9.92;100.00
2397;BME280;1209;48.410;9.054;2023-04-22T04:51:06;95643.28;;;9.85;100.00
2397;BME280;1209;48.410;9.054;2023-04-22T04:53:32;95646.84;;;9.99;100.00
2397;BME280;1209;48.410;9.054;2023-04-22T04:55:57;95646.09;;;10.05;100.00
2397;BME280;1209;48.410;9.054;2023-04-22T04:58:22;95639.66;;;10.01;100.00
2397;BME280;1209;48.410;9.054;2023-04-22T05:00:48;95634.69;;;10.06;100.00
2397;BME280;1209;48.410;9.054;2023-04-22T05:03:13;95635.22;;;10.01;100.00
2397;BME280;1209;48.410;9.054;2023-04-22T05:05:38;95630.22;;;10.00;100.00
2397;BME280;1209;48.410;9.054;2023-04-22T05:08:04;95632.31;;;10.11;100.00
2397;BME280;1209;48.410;9.054;2023-04-22T05:10:29;95634.34;;;10.16;100.00
2397;BME280;1209;48.410;9.054;2023-04-22T05:12:54;95635.53;;;10.13;100.00
2397;BME280;1209;48.410;9.054;2023-04-22T05:15:20;95631.31;;;10.12;100.00
2397;BME280;1209;48.410;9.054;2023-04-22T05:17:45;95631.13;;;10.14;100.00
2397;BME280;1209;48.410;9.054;2023-04-22T05:20:10;95623.53;;;10.19;100.00
2397;BME280;1209;48.410;9.054;2023-04-22T05:22:36;95628.59;;;10.20;100.00
2397;BME280;1209;48.410;9.054;2023-04-22T05:25:02;95635.72;;;10.12;100.00
2397;BME280;1209;48.410;9.054;2023-04-22T05:27:28;95634.66;;;9.85;100.00
2397;BME280;1209;48.410;9.054;2023-04-22T05:29:55;95642.00;;;9.96;100.00
2397;BME280;1209;48.410;9.054;2023-04-22T05:32:20;95645.06;;;9.99;100.00
2397;BME280;1209;48.410;9.054;2023-04-22T05:34:45;95643.69;;;10.03;100.00
2397;BME280;1209;48.410;9.054;2023-04-22T05:37:11;95644.63;;;9.96;100.00
2397;BME280;1209;48.410;9.054;2023-04-22T05:39:36;95639.66;;;10.01;100.00
2397;BME280;1209;48.410;9.054;2023-04-22T05:42:01;95638.34;;;10.12;100.00
2397;BME280;1209;48.410;9.054;2023-04-22T05:44:27;95646.91;;;10.27;100.00
2397;BME280;1209;48.410;9.054;2023-04-22T05:46:52;95636.78;;;10.38;100.00
2397;BME280;1209;48.410;9.054;2023-04-22T05:49:18;95637.66;;;10.46;100.00
2397;BME280;1209;48.410;9.054;2023-04-22T05:51:44;95640.88;;;10.48;100.00
2397;BME280;1209;48.410;9.054;2023-04-22T05:54:09;95649.53;;;10.48;100.00
2397;BME280;1209;48.410;9.054;2023-04-22T05:56:35;95642.78;;;10.60;100.00
2397;BME280;1209;48.410;9.054;2023-04-22T05:59:00;95646.41;;;10.59;100.00
2397;BME280;1209;48.410;9.054;2023-04-22T06:01:26;95653.00;;;10.55;100.00
2397;BME280;1209;48.410;9.054;2023-04-22T06:03:51;95647.47;;;10.71;100.00
2397;BME280;1209;48.410;9.054;2023-04-22T06:06:16;95653.38;;;10.80;100.00
2397;BME280;1209;48.410;9.054;2023-04-22T06:08:42;95642.31;;;10.78;100.00
2397;BME280;1209;48.410;9.054;2023-04-22T06:11:07;95647.56;;;10.85;100.00
2397;BME280;1209;48.410;9.054;2023-04-22T06:13:33;95646.75;;;10.84;100.00
2397;BME280;1209;48.410;9.054;2023-04-22T06:15:58;95652.50;;;11.01;100.00
2397;BME280;1209;48.410;9.054;2023-04-22T06:18:23;95646.66;;;10.99;100.00
2397;BME280;1209;48.410;9.054;2023-04-22T06:20:50;95643.91;;;11.07;100.00
2397;BME280;1209;48.410;9.054;2023-04-22T06:23:16;95652.56;;;11.14;100.00
2397;BME280;1209;48.410;9.054;2023-04-22T06:25:41;95650.63;;;11.29;100.00
2397;BME280;1209;48.410;9.054;2023-04-22T06:28:06;95648.44;;;11.33;100.00
2397;BME280;1209;48.410;9.054;2023-04-22T06:30:31;95651.13;;;11.46;100.00
2397;BME280;1209;48.410;9.054;2023-04-22T06:32:57;95648.94;;;11.50;100.00
2397;BME280;1209;48.410;9.054;2023-04-22T06:35:22;95644.91;;;11.47;100.00
2397;BME280;1209;48.410;9.054;2023-04-22T06:37:47;95656.19;;;11.54;100.00
2397;BME280;1209;48.410;9.054;2023-04-22T06:40:14;95657.41;;;11.58;100.00
2397;BME280;1209;48.410;9.054;2023-04-22T06:42:39;95655.44;;;11.67;100.00
2397;BME280;1209;48.410;9.054;2023-04-22T06:45:05;95653.00;;;11.65;100.00
2397;BME280;1209;48.410;9.054;2023-04-22T06:47:31;95647.41;;;11.75;100.00
2397;BME280;1209;48.410;9.054;2023-04-22T06:49:56;95648.16;;;11.56;100.00
2397;BME280;1209;48.410;9.054;2023-04-22T06:52:21;95652.19;;;11.65;100.00
2397;BME280;1209;48.410;9.054;2023-04-22T06:54:46;95646.84;;;11.80;100.00
2397;BME280;1209;48.410;9.054;2023-04-22T06:57:12;95643.88;;;11.96;100.00
2397;BME280;1209;48.410;9.054;2023-04-22T06:59:37;95644.28;;;12.00;100.00
2397;BME280;1209;48.410;9.054;2023-04-22T07:02:02;95644.09;;;12.08;100.00
2397;BME280;1209;48.410;9.054;2023-04-22T07:04:28;95634.84;;;12.12;100.00
2397;BME280;1209;48.410;9.054;2023-04-22T07:06:55;95636.25;;;12.14;100.00
2397;BME280;1209;48.410;9.054;2023-04-22T07:09:20;95631.03;;;12.27;100.00
2397;BME280;1209;48.410;9.054;2023-04-22T07:11:46;95630.03;;;12.35;100.00
2397;BME280;1209;48.410;9.054;2023-04-22T07:14:11;95635.47;;;12.60;100.00
2397;BME280;1209;48.410;9.054;2023-04-22T07:16:37;95638.47;;;12.70;100.00
2397;BME280;1209;48.410;9.054;2023-04-22T07:19:03;95643.72;;;12.83;100.00
2397;BME280;1209;48.410;9.054;2023-04-22T07:21:30;95640.69;;;12.86;100.00
2397;BME280;1209;48.410;9.054;2023-04-22T07:23:56;95644.31;;;12.92;100.00
2397;BME280;1209;48.410;9.054;2023-04-22T07:26:22;95648.34;;;12.88;100.00
2397;BME280;1209;48.410;9.054;2023-04-22T07:28:48;95652.41;;;12.84;100.00
2397;BME280;1209;48.410;9.054;2023-04-22T07:31:13;95647.56;;;12.81;100.00
2397;BME280;1209;48.410;9.054;2023-04-22T07:33:38;95645.75;;;12.88;100.00
2397;BME280;1209;48.410;9.054;2023-04-22T07:36:05;95647.13;;;12.97;100.00
2397;BME280;1209;48.410;9.054;2023-04-22T07:38:30;95656.19;;;13.01;100.00
2397;BME280;1209;48.410;9.054;2023-04-22T07:40:55;95658.22;;;12.99;100.00
2397;BME280;1209;48.410;9.054;2023-04-22T07:43:21;95658.19;;;13.19;100.00
2397;BME280;1209;48.410;9.054;2023-04-22T07:45:46;95670.09;;;13.21;100.00
2397;BME280;1209;48.410;9.054;2023-04-22T07:48:11;95665.44;;;13.37;100.00
2397;BME280;1209;48.410;9.054;2023-04-22T07:50:37;95668.84;;;13.44;100.00
2397;BME280;1209;48.410;9.054;2023-04-22T07:53:02;95667.00;;;13.51;100.00
2397;BME280;1209;48.410;9.054;2023-04-22T07:55:27;95662.09;;;13.61;100.00
2397;BME280;1209;48.410;9.054;2023-04-22T07:57:53;95667.72;;;13.71;100.00
2397;BME280;1209;48.410;9.054;2023-04-22T08:00:18;95666.31;;;13.75;100.00
2397;BME280;1209;48.410;9.054;2023-04-22T08:02:43;95675.25;;;13.99;100.00
2397;BME280;1209;48.410;9.054;2023-04-22T08:05:10;95667.44;;;13.93;100.00
2397;BME280;1209;48.410;9.054;2023-04-22T08:07:35;95670.53;;;14.14;100.00
2397;BME280;1209;48.410;9.054;2023-04-22T08:10:01;95667.91;;;14.14;100.00
2397;BME280;1209;48.410;9.054;2023-04-22T08:12:26;95668.06;;;14.58;100.00
2397;BME280;1209;48.410;9.054;2023-04-22T08:14:51;95663.66;;;14.76;100.00
2397;BME280;1209;48.410;9.054;2023-04-22T08:17:17;95660.75;;;15.28;100.00
2397;BME280;1209;48.410;9.054;2023-04-22T08:19:46;95656.97;;;15.79;100.00
2397;BME280;1209;48.410;9.054;2023-04-22T08:22:11;95658.53;;;15.98;100.00
2397;BME280;1209;48.410;9.054;2023-04-22T08:24:37;95646.84;;;16.24;100.00
2397;BME280;1209;48.410;9.054;2023-04-22T08:27:03;95641.72;;;16.41;100.00
2397;BME280;1209;48.410;9.054;2023-04-22T08:29:29;95640.19;;;16.63;100.00
2397;BME280;1209;48.410;9.054;2023-04-22T08:31:54;95648.13;;;16.75;99.46
2397;BME280;1209;48.410;9.054;2023-04-22T08:34:19;95640.91;;;16.93;98.44
2397;BME280;1209;48.410;9.054;2023-04-22T08:36:45;95647.56;;;17.19;94.58
2397;BME280;1209;48.410;9.054;2023-04-22T08:39:11;95643.94;;;17.49;96.44
2397;BME280;1209;48.410;9.054;2023-04-22T08:41:38;95642.72;;;17.51;96.01
2397;BME280;1209;48.410;9.054;2023-04-22T08:44:03;95638.09;;;17.58;98.03
2397;BME280;1209;48.410;9.054;2023-04-22T08:46:30;95640.59;;;17.77;98.17
2397;BME280;1209;48.410;9.054;2023-04-22T08:48:55;95627.56;;;17.87;94.21
2397;BME280;1209;48.410;9.054;2023-04-22T08:51:27;95637.53;;;17.68;98.65
2397;BME280;1209;48.410;9.054;2023-04-22T08:53:52;95633.66;;;17.87;95.23
2397;BME280;1209;48.410;9.054;2023-04-22T08:56:18;95638.00;;;18.39;95.29
2397;BME280;1209;48.410;9.054;2023-04-22T08:58:44;95638.13;;;18.61;95.72
2397;BME280;1209;48.410;9.054;2023-04-22T09:01:10;95642.72;;;18.82;95.05
2397;BME280;1209;48.410;9.054;2023-04-22T09:03:40;95644.00;;;18.96;95.55
2397;BME280;1209;48.410;9.054;2023-04-22T09:06:06;95638.38;;;19.09;95.66
2397;BME280;1209;48.410;9.054;2023-04-22T09:08:32;95641.03;;;19.48;87.46
2397;BME280;1209;48.410;9.054;2023-04-22T09:10:58;95633.06;;;19.87;82.99
2397;BME280;1209;48.410;9.054;2023-04-22T09:13:25;95632.56;;;19.68;87.83
2397;BME280;1209;48.410;9.054;2023-04-22T09:15:50;95624.00;;;20.09;81.30
2397;BME280;1209;48.410;9.054;2023-04-22T09:18:17;95624.22;;;20.03;82.29
2397;BME280;1209;48.410;9.054;2023-04-22T09:20:43;95621.41;;;19.88;85.23
2397;BME280;1209;48.410;9.054;2023-04-22T09:23:11;95616.81;;;19.83;83.75
2397;BME280;1209;48.410;9.054;2023-04-22T09:25:36;95619.34;;;20.22;81.85
2397;BME280;1209;48.410;9.054;2023-04-22T09:28:02;95619.38;;;20.49;78.29
2397;BME280;1209;48.410;9.054;2023-04-22T09:30:30;95615.84;;;20.75;73.84
2397;BME280;1209;48.410;9.054;2023-04-22T09:32:58;95615.78;;;20.65;72.09
2397;BME280;1209;48.410;9.054;2023-04-22T09:35:29;95613.06;;;20.92;76.32
2397;BME280;1209;48.410;9.054;2023-04-22T09:37:57;95615.84;;;21.54;72.23
2397;BME280;1209;48.410;9.054;2023-04-22T09:40:23;95616.78;;;20.91;73.80
2397;BME280;1209;48.410;9.054;2023-04-22T09:42:53;95610.97;;;21.36;76.82
2397;BME280;1209;48.410;9.054;2023-04-22T09:45:32;95609.94;;;21.42;73.64
2397;BME280;1209;48.410;9.054;2023-04-22T09:50:41;95605.34;;;21.95;67.49
2397;BME280;1209;48.410;9.054;2023-04-22T09:53:09;95601.97;;;22.20;64.74
2397;BME280;1209;48.410;9.054;2023-04-22T09:55:40;95610.78;;;22.41;62.90
2397;BME280;1209;48.410;9.054;2023-04-22T09:58:09;95603.25;;;22.02;64.94
2397;BME280;1209;48.410;9.054;2023-04-22T10:00:41;95604.63;;;22.20;65.44
2397;BME280;1209;48.410;9.054;2023-04-22T10:03:06;95610.56;;;22.88;63.46
2397;BME280;1209;48.410;9.054;2023-04-22T10:05:32;95604.97;;;22.89;66.25
2397;BME280;1209;48.410;9.054;2023-04-22T10:08:03;95593.50;;;22.89;60.64
2397;BME280;1209;48.410;9.054;2023-04-22T10:10:29;95594.81;;;22.61;64.21
2397;BME280;1209;48.410;9.054;2023-04-22T10:12:55;95606.28;;;23.02;64.63
2397;BME280;1209;48.410;9.054;2023-04-22T10:15:21;95595.53;;;23.38;62.46
2397;BME280;1209;48.410;9.054;2023-04-22T10:17:47;95600.06;;;23.42;60.06
2397;BME280;1209;48.410;9.054;2023-04-22T10:20:16;95593.69;;;23.33;60.61
2397;BME280;1209;48.410;9.054;2023-04-22T10:22:43;95592.31;;;23.41;64.85
2397;BME280;1209;48.410;9.054;2023-04-22T10:25:13;95573.19;;;23.29;58.07
2397;BME280;1209;48.410;9.054;2023-04-22T10:27:52;95580.53;;;23.67;52.13
2397;BME280;1209;48.410;9.054;2023-04-22T10:30:26;95581.06;;;23.64;49.34
2397;BME280;1209;48.410;9.054;2023-04-22T10:32:52;95570.38;;;23.74;51.16
2397;BME280;1209;48.410;9.054;2023-04-22T10:35:25;95568.03;;;23.58;49.30
2397;BME280;1209;48.410;9.054;2023-04-22T10:37:51;95570.66;;;23.68;50.37
2397;BME280;1209;48.410;9.054;2023-04-22T10:40:17;95570.25;;;23.30;51.84
2397;BME280;1209;48.410;9.054;2023-04-22T10:42:49;95569.44;;;23.30;51.38
2397;BME280;1209;48.410;9.054;2023-04-22T10:45:15;95566.97;;;23.48;48.27
2397;BME280;1209;48.410;9.054;2023-04-22T10:47:43;95577.91;;;23.47;46.13
2397;BME280;1209;48.410;9.054;2023-04-22T10:50:11;95578.41;;;23.54;45.66
2397;BME280;1209;48.410;9.054;2023-04-22T10:52:37;95577.50;;;23.84;46.53
2397;BME280;1209;48.410;9.054;2023-04-22T10:55:02;95574.78;;;23.94;46.00
2397;BME280;1209;48.410;9.054;2023-04-22T10:57:30;95581.84;;;23.75;43.40
2397;BME280;1209;48.410;9.054;2023-04-22T11:00:18;95587.84;;;23.96;44.32
2397;BME280;1209;48.410;9.054;2023-04-22T11:02:45;95572.75;;;23.76;44.41
2397;BME280;1209;48.410;9.054;2023-04-22T11:05:18;95578.28;;;23.90;43.39
2397;BME280;1209;48.410;9.054;2023-04-22T11:07:46;95581.66;;;24.05;43.89
2397;BME280;1209;48.410;9.054;2023-04-22T11:10:30;95572.41;;;23.93;43.41
2397;BME280;1209;48.410;9.054;2023-04-22T11:12:56;95570.31;;;23.84;45.74
2397;BME280;1209;48.410;9.054;2023-04-22T11:15:21;95569.34;;;24.09;45.07
2397;BME280;1209;48.410;9.054;2023-04-22T11:17:50;95577.53;;;23.79;45.19
2397;BME280;1209;48.410;9.054;2023-04-22T11:20:16;95594.88;;;23.81;41.62
2397;BME280;1209;48.410;9.054;2023-04-22T11:22:47;95575.03;;;23.98;43.22
2397;BME280;1209;48.410;9.054;2023-04-22T11:25:13;95581.38;;;24.07;40.58
2397;BME280;1209;48.410;9.054;2023-04-22T11:27:39;95572.41;;;24.37;41.10
2397;BME280;1209;48.410;9.054;2023-04-22T11:30:16;95586.81;;;23.92;41.87
2397;BME280;1209;48.410;9.054;2023-04-22T11:32:44;95575.97;;;24.22;42.69
2397;BME280;1209;48.410;9.054;2023-04-22T11:35:16;95584.56;;;24.14;43.84
2397;BME280;1209;48.410;9.054;2023-04-22T11:40:18;95574.84;;;24.96;41.39
2397;BME280;1209;48.410;9.054;2023-04-22T11:42:45;95573.66;;;25.60;41.00
2397;BME280;1209;48.410;9.054;2023-04-22T11:45:10;95578.66;;;25.43;39.17
2397;BME280;1209;48.410;9.054;2023-04-22T11:47:38;95582.91;;;25.20;39.54
2397;BME280;1209;48.410;9.054;2023-04-22T11:50:06;95573.66;;;25.13;39.21
2397;BME280;1209;48.410;9.054;2023-04-22T11:52:57;95572.81;;;24.83;40.71
2397;BME280;1209;48.410;9.054;2023-04-22T11:55:24;95572.50;;;24.56;40.93
2397;BME280;1209;48.410;9.054;2023-04-22T11:58:10;95573.75;;;24.34;40.62
2397;BME280;1209;48.410;9.054;2023-04-22T12:00:42;95567.94;;;24.90;40.80
2397;BME280;1209;48.410;9.054;2023-04-22T12:05:39;95559.88;;;25.48;43.52
2397;BME280;1209;48.410;9.054;2023-04-22T12:08:12;95566.41;;;25.37;41.86
2397;BME280;1209;48.410;9.054;2023-04-22T12:10:42;95566.19;;;24.02;43.01
2397;BME280;1209;48.410;9.054;2023-04-22T12:13:08;95562.56;;;24.66;43.34
2397;BME280;1209;48.410;9.054;2023-04-22T12:15:41;95556.06;;;25.06;41.37
2397;BME280;1209;48.410;9.054;2023-04-22T12:18:07;95561.25;;;25.69;39.73
2397;BME280;1209;48.410;9.054;2023-04-22T12:20:34;95557.19;;;25.72;38.81
2397;BME280;1209;48.410;9.054;2023-04-22T12:22:59;95549.69;;;25.50;41.15
2397;BME280;1209;48.410;9.054;2023-04-22T12:25:25;95564.25;;;26.06;40.24
2397;BME280;1209;48.410;9.054;2023-04-22T12:27:51;95556.63;;;25.94;39.31
2397;BME280;1209;48.410;9.054;2023-04-22T12:30:16;95550.06;;;25.86;40.09
2397;BME280;1209;48.410;9.054;2023-04-22T12:32:41;95551.56;;;26.49;40.61
2397;BME280;1209;48.410;9.054;2023-04-22T12:35:07;95556.69;;;26.45;42.16
2397;BME280;1209;48.410;9.054;2023-04-22T12:37:32;95559.41;;;25.65;42.67
2397;BME280;1209;48.410;9.054;2023-04-22T12:39:58;95559.19;;;25.61;41.47
2397;BME280;1209;48.410;9.054;2023-04-22T12:42:23;95556.34;;;25.05;41.17
2397;BME280;1209;48.410;9.054;2023-04-22T12:44:49;95558.59;;;24.59;41.28
2397;BME280;1209;48.410;9.054;2023-04-22T12:47:14;95553.50;;;23.84;41.72
2397;BME280;1209;48.410;9.054;2023-04-22T12:49:42;95554.38;;;24.18;43.47
2397;BME280;1209;48.410;9.054;2023-04-22T12:52:08;95554.81;;;23.86;43.62
2397;BME280;1209;48.410;9.054;2023-04-22T12:54:34;95561.88;;;23.62;44.68
2397;BME280;1209;48.410;9.054;2023-04-22T12:56:59;95550.78;;;23.30;45.66
2397;BME280;1209;48.410;9.054;2023-04-22T12:59:26;95550.56;;;23.16;47.34
2397;BME280;1209;48.410;9.054;2023-04-22T13:01:51;95545.81;;;23.03;48.93
2397;BME280;1209;48.410;9.054;2023-04-22T13:04:18;95548.78;;;22.71;48.55
2397;BME280;1209;48.410;9.054;2023-04-22T13:06:44;95551.41;;;22.66;46.94
2397;BME280;1209;48.410;9.054;2023-04-22T13:09:09;95554.38;;;22.54;48.55
2397;BME280;1209;48.410;9.054;2023-04-22T13:11:35;95555.97;;;22.40;47.78
2397;BME280;1209;48.410;9.054;2023-04-22T13:14:01;95553.56;;;22.48;49.00
2397;BME280;1209;48.410;9.054;2023-04-22T13:16:26;95561.03;;;22.46;47.32
2397;BME280;1209;48.410;9.054;2023-04-22T13:18:51;95565.28;;;22.42;47.73